sensor_id;sensor_type;location;lat;lon;timestamp;pressure;altitude;pressure_sealevel;temperature;humidity
71361;BME280;59166;48.908;1.870;2023-09-08T00:00:58;100303.88;;;22.94;69.44
71361;BME280;59166;48.908;1.870;2023-09-08T00:05:58;100315.00;;;22.85;69.41
71361;BME280;59166;48.908;1.870;2023-09-08T00:10:59;100310.06;;;22.79;69.86
71361;BME280;59166;48.908;1.870;2023-09-08T00:16:01;100312.81;;;22.67;69.51
71361;BME280;59166;48.908;1.870;2023-09-08T00:21:02;100314.38;;;22.56;70.33
71361;BME280;59166;48.908;1.870;2023-09-08T00:26:03;100307.50;;;22.41;71.19
71361;BME280;59166;48.908;1.870;2023-09-08T00:31:05;100310.28;;;22.20;73.22
71361;BME280;59166;48.908;1.870;2023-09-08T00:36:06;100295.84;;;22.23;73.28
71361;BME280;59166;48.908;1.870;2023-09-08T00:41:07;100315.25;;;22.27;73.32
71361;BME280;59166;48.908;1.870;2023-09-08T00:46:09;100311.03;;;22.29;73.07
71361;BME280;59166;48.908;1.870;2023-09-08T00:51:11;100309.63;;;22.23;73.68
71361;BME280;59166;48.908;1.870;2023-09-08T00:56:11;100304.34;;;22.18;73.86
71361;BME280;59166;48.908;1.870;2023-09-08T01:01:14;100306.69;;;22.08;74.71
71361;BME280;59166;48.908;1.870;2023-09-08T01:06:14;100302.94;;;21.91;74.62
71361;BME280;59166;48.908;1.870;2023-09-08T01:11:16;100303.06;;;21.74;75.54
71361;BME280;59166;48.908;1.870;2023-09-08T01:16:18;100295.16;;;21.73;76.17
71361;BME280;59166;48.908;1.870;2023-09-08T01:21:51;100305.97;;;21.69;76.54
71361;BME280;59166;48.908;1.870;2023-09-08T01:26:55;100297.44;;;21.62;77.13
71361;BME280;59166;48.908;1.870;2023-09-08T01:31:56;100300.28;;;21.54;78.07
71361;BME280;59166;48.908;1.870;2023-09-08T01:36:57;100290.78;;;21.42;79.61
71361;BME280;59166;48.908;1.870;2023-09-08T01:41:59;100285.66;;;21.41;80.03
71361;BME280;59166;48.908;1.870;2023-09-08T01:47:00;100288.38;;;21.41;80.33
71361;BME280;59166;48.908;1.870;2023-09-08T01:52:01;100286.09;;;21.43;79.60
71361;BME280;59166;48.908;1.870;2023-09-08T01:57:03;100286.91;;;21.43;79.73
71361;BME280;59166;48.908;1.870;2023-09-08T02:02:04;100292.94;;;21.37;79.20
71361;BME280;59166;48.908;1.870;2023-09-08T02:07:05;100292.19;;;21.28;79.48
71361;BME280;59166;48.908;1.870;2023-09-08T02:12:07;100282.19;;;21.23;79.61
71361;BME280;59166;48.908;1.870;2023-09-08T02:17:08;100293.91;;;21.03;80.93
71361;BME280;59166;48.908;1.870;2023-09-08T02:22:09;100297.63;;;20.98;81.13
71361;BME280;59166;48.908;1.870;2023-09-08T02:27:11;100298.44;;;20.99;81.03
71361;BME280;59166;48.908;1.870;2023-09-08T02:32:12;100303.47;;;20.97;81.54
71361;BME280;59166;48.908;1.870;2023-09-08T02:37:12;100296.84;;;20.98;82.22
71361;BME280;59166;48.908;1.870;2023-09-08T02:42:14;100304.13;;;20.94;82.16
71361;BME280;59166;48.908;1.870;2023-09-08T02:47:15;100296.84;;;20.98;81.86
71361;BME280;59166;48.908;1.870;2023-09-08T02:52:16;100301.69;;;21.01;82.12
71361;BME280;59166;48.908;1.870;2023-09-08T02:57:18;100304.75;;;20.99;82.29
71361;BME280;59166;48.908;1.870;2023-09-08T03:02:18;100294.44;;;20.96;82.01
71361;BME280;59166;48.908;1.870;2023-09-08T03:07:19;100304.13;;;20.94;82.70
71361;BME280;59166;48.908;1.870;2023-09-08T03:12:21;100297.34;;;20.83;82.17
71361;BME280;59166;48.908;1.870;2023-09-08T03:17:22;100300.25;;;20.86;81.79
71361;BME280;59166;48.908;1.870;2023-09-08T03:22:23;100302.50;;;20.84;83.08
71361;BME280;59166;48.908;1.870;2023-09-08T03:27:25;100307.38;;;20.79;83.54
71361;BME280;59166;48.908;1.870;2023-09-08T03:32:25;100297.66;;;20.81;82.37
71361;BME280;59166;48.908;1.870;2023-09-08T03:37:26;100297.03;;;20.93;78.75
71361;BME280;59166;48.908;1.870;2023-09-08T03:42:28;100284.34;;;21.09;79.18
71361;BME280;59166;48.908;1.870;2023-09-08T03:47:29;100289.97;;;21.21;77.67
71361;BME280;59166;48.908;1.870;2023-09-08T03:52:29;100280.25;;;21.24;79.57
71361;BME280;59166;48.908;1.870;2023-09-08T03:57:31;100286.34;;;21.29;77.52
71361;BME280;59166;48.908;1.870;2023-09-08T04:02:32;100280.22;;;21.53;75.89
71361;BME280;59166;48.908;1.870;2023-09-08T04:07:33;100278.47;;;21.69;75.27
71361;BME280;59166;48.908;1.870;2023-09-08T04:12:35;100287.53;;;21.78;74.61
71361;BME280;59166;48.908;1.870;2023-09-08T04:17:36;100280.53;;;21.81;74.50
71361;BME280;59166;48.908;1.870;2023-09-08T04:22:37;100289.25;;;21.83;75.22
71361;BME280;59166;48.908;1.870;2023-09-08T04:27:39;100283.38;;;21.64;77.37
71361;BME280;59166;48.908;1.870;2023-09-08T04:32:39;100288.34;;;21.20;78.85
71361;BME280;59166;48.908;1.870;2023-09-08T04:37:40;100294.63;;;20.83;81.26
71361;BME280;59166;48.908;1.870;2023-09-08T04:42:42;100291.34;;;20.43;82.52
71361;BME280;59166;48.908;1.870;2023-09-08T04:47:43;100292.84;;;20.06;84.95
71361;BME280;59166;48.908;1.870;2023-09-08T04:52:44;100288.28;;;19.93;85.85
71361;BME280;59166;48.908;1.870;2023-09-08T04:57:46;100289.53;;;19.70;88.31
71361;BME280;59166;48.908;1.870;2023-09-08T05:02:46;100289.25;;;19.63;88.42
71361;BME280;59166;48.908;1.870;2023-09-08T05:07:47;100301.28;;;19.53;89.63
71361;BME280;59166;48.908;1.870;2023-09-08T05:12:49;100301.13;;;19.49;90.35
71361;BME280;59166;48.908;1.870;2023-09-08T05:17:50;100297.56;;;19.40;91.26
71361;BME280;59166;48.908;1.870;2023-09-08T05:22:51;100301.44;;;19.39;91.61
71361;BME280;59166;48.908;1.870;2023-09-08T05:27:54;100305.16;;;19.43;92.96
71361;BME280;59166;48.908;1.870;2023-09-08T05:32:57;100307.75;;;19.57;94.28
71361;BME280;59166;48.908;1.870;2023-09-08T05:38:04;100295.50;;;19.55;93.91
71361;BME280;59166;48.908;1.870;2023-09-08T05:43:09;100311.16;;;19.63;93.73
71361;BME280;59166;48.908;1.870;2023-09-08T05:48:16;100309.53;;;19.62;94.72
71361;BME280;59166;48.908;1.870;2023-09-08T05:53:17;100307.94;;;19.61;96.04
71361;BME280;59166;48.908;1.870;2023-09-08T05:58:28;100313.56;;;19.64;96.45
71361;BME280;59166;48.908;1.870;2023-09-08T06:03:29;100320.84;;;19.69;97.00
71361;BME280;59166;48.908;1.870;2023-09-08T06:08:33;100327.44;;;19.76;96.52
71361;BME280;59166;48.908;1.870;2023-09-08T06:13:35;100325.53;;;19.85;97.30
71361;BME280;59166;48.908;1.870;2023-09-08T06:18:44;100330.06;;;19.98;96.05
71361;BME280;59166;48.908;1.870;2023-09-08T06:23:45;100332.69;;;20.12;95.83
71361;BME280;59166;48.908;1.870;2023-09-08T06:28:50;100331.53;;;20.22;94.50
71361;BME280;59166;48.908;1.870;2023-09-08T06:33:51;100334.28;;;20.39;94.11
71361;BME280;59166;48.908;1.870;2023-09-08T06:38:55;100332.16;;;20.44;93.41
71361;BME280;59166;48.908;1.870;2023-09-08T06:44:03;100341.38;;;20.57;94.19
71361;BME280;59166;48.908;1.870;2023-09-08T06:49:08;100342.00;;;20.63;94.54
71361;BME280;59166;48.908;1.870;2023-09-08T06:54:20;100340.53;;;20.74;94.35
71361;BME280;59166;48.908;1.870;2023-09-08T06:59:24;100333.38;;;20.90;95.12
71361;BME280;59166;48.908;1.870;2023-09-08T07:10:01;100336.63;;;21.30;93.39
71361;BME280;59166;48.908;1.870;2023-09-08T07:15:07;100353.16;;;21.50;93.42
71361;BME280;59166;48.908;1.870;2023-09-08T07:20:14;100351.59;;;21.79;91.41
71361;BME280;59166;48.908;1.870;2023-09-08T07:25:15;100354.94;;;22.05;90.31
71361;BME280;59166;48.908;1.870;2023-09-08T07:30:31;100361.13;;;22.23;89.07
71361;BME280;59166;48.908;1.870;2023-09-08T07:35:37;100362.66;;;22.32;89.16
71361;BME280;59166;48.908;1.870;2023-09-08T07:40:38;100358.81;;;22.45;87.63
71361;BME280;59166;48.908;1.870;2023-09-08T07:45:41;100363.03;;;22.64;88.46
71361;BME280;59166;48.908;1.870;2023-09-08T07:50:52;100358.16;;;22.81;87.37
71361;BME280;59166;48.908;1.870;2023-09-08T07:56:00;100360.28;;;23.09;86.80
71361;BME280;59166;48.908;1.870;2023-09-08T08:06:30;100358.94;;;23.75;84.71
71361;BME280;59166;48.908;1.870;2023-09-08T08:11:32;100367.28;;;24.15;84.63
71361;BME280;59166;48.908;1.870;2023-09-08T08:16:37;100364.63;;;24.46;82.10
71361;BME280;59166;48.908;1.870;2023-09-08T08:21:38;100366.59;;;24.74;74.38
71361;BME280;59166;48.908;1.870;2023-09-08T08:26:40;100370.22;;;25.21;74.15
71361;BME280;59166;48.908;1.870;2023-09-08T08:31:43;100383.03;;;25.57;70.27
71361;BME280;59166;48.908;1.870;2023-09-08T08:36:44;100379.19;;;25.96;69.72
71361;BME280;59166;48.908;1.870;2023-09-08T08:41:45;100382.63;;;26.44;68.37
71361;BME280;59166;48.908;1.870;2023-09-08T08:46:47;100389.06;;;27.09;65.11
71361;BME280;59166;48.908;1.870;2023-09-08T08:51:50;100393.78;;;27.77;61.56
71361;BME280;59166;48.908;1.870;2023-09-08T08:56:52;100393.50;;;28.12;60.90
71361;BME280;59166;48.908;1.870;2023-09-08T09:01:56;100391.41;;;28.31;60.05
71361;BME280;59166;48.908;1.870;2023-09-08T09:06:58;100390.22;;;28.66;59.89
71361;BME280;59166;48.908;1.870;2023-09-08T09:11:59;100397.78;;;28.98;57.67
71361;BME280;59166;48.908;1.870;2023-09-08T09:17:01;100394.69;;;29.47;54.74
71361;BME280;59166;48.908;1.870;2023-09-08T09:22:01;100396.13;;;29.82;52.43
71361;BME280;59166;48.908;1.870;2023-09-08T09:27:03;100397.53;;;30.06;50.53
71361;BME280;59166;48.908;1.870;2023-09-08T09:32:06;100396.09;;;30.36;50.19
71361;BME280;59166;48.908;1.870;2023-09-08T09:37:08;100390.63;;;30.65;48.90
71361;BME280;59166;48.908;1.870;2023-09-08T09:42:09;100396.69;;;30.81;47.36
71361;BME280;59166;48.908;1.870;2023-09-08T09:47:13;100397.47;;;30.92;48.53
71361;BME280;59166;48.908;1.870;2023-09-08T09:52:19;100389.94;;;30.96;48.75
71361;BME280;59166;48.908;1.870;2023-09-08T09:57:21;100384.78;;;31.12;48.56
71361;BME280;59166;48.908;1.870;2023-09-08T10:02:25;100376.44;;;31.26;47.78
71361;BME280;59166;48.908;1.870;2023-09-08T10:07:26;100390.41;;;31.33;46.99
71361;BME280;59166;48.908;1.870;2023-09-08T10:12:27;100383.22;;;31.53;48.85
71361;BME280;59166;48.908;1.870;2023-09-08T10:17:30;100386.47;;;31.63;46.10
71361;BME280;59166;48.908;1.870;2023-09-08T10:22:32;100376.84;;;31.78;45.51
71361;BME280;59166;48.908;1.870;2023-09-08T10:27:33;100379.97;;;32.12;46.02
71361;BME280;59166;48.908;1.870;2023-09-08T10:32:36;100380.75;;;32.19;44.24
71361;BME280;59166;48.908;1.870;2023-09-08T10:37:37;100375.03;;;32.51;44.20
71361;BME280;59166;48.908;1.870;2023-09-08T10:42:40;100375.75;;;32.73;42.93
71361;BME280;59166;48.908;1.870;2023-09-08T10:47:56;100381.22;;;32.94;41.05
71361;BME280;59166;48.908;1.870;2023-09-08T10:53:07;100370.66;;;33.16;43.19
71361;BME280;59166;48.908;1.870;2023-09-08T10:58:10;100366.56;;;33.34;41.76
71361;BME280;59166;48.908;1.870;2023-09-08T11:03:12;100360.88;;;33.45;40.68
71361;BME280;59166;48.908;1.870;2023-09-08T11:08:13;100360.13;;;33.82;39.13
71361;BME280;59166;48.908;1.870;2023-09-08T11:13:15;100360.34;;;33.98;39.90
71361;BME280;59166;48.908;1.870;2023-09-08T11:18:17;100357.03;;;34.07;38.10
71361;BME280;59166;48.908;1.870;2023-09-08T11:23:17;100360.94;;;34.16;37.19
71361;BME280;59166;48.908;1.870;2023-09-08T11:28:19;100361.88;;;34.40;37.05
71361;BME280;59166;48.908;1.870;2023-09-08T11:33:24;100359.78;;;34.47;35.56
71361;BME280;59166;48.908;1.870;2023-09-08T11:38:25;100359.69;;;34.55;34.69
71361;BME280;59166;48.908;1.870;2023-09-08T11:43:26;100355.41;;;34.77;33.95
71361;BME280;59166;48.908;1.870;2023-09-08T11:48:28;100343.94;;;34.91;32.93
71361;BME280;59166;48.908;1.870;2023-09-08T11:53:29;100343.47;;;34.96;34.09
71361;BME280;59166;48.908;1.870;2023-09-08T11:58:30;100333.66;;;35.08;32.90
71361;BME280;59166;48.908;1.870;2023-09-08T12:03:32;100336.06;;;35.32;33.04
71361;BME280;59166;48.908;1.870;2023-09-08T12:08:33;100325.03;;;34.95;31.71
71361;BME280;59166;48.908;1.870;2023-09-08T12:13:34;100321.88;;;35.16;33.68
71361;BME280;59166;48.908;1.870;2023-09-08T12:18:39;100317.34;;;35.26;32.57
71361;BME280;59166;48.908;1.870;2023-09-08T12:23:50;100321.78;;;35.46;31.53
71361;BME280;59166;48.908;1.870;2023-09-08T12:28:52;100322.13;;;35.48;32.87
71361;BME280;59166;48.908;1.870;2023-09-08T12:33:54;100314.16;;;35.47;31.63
71361;BME280;59166;48.908;1.870;2023-09-08T12:38:55;100319.81;;;35.67;31.58
71361;BME280;59166;48.908;1.870;2023-09-08T12:43:56;100309.53;;;35.80;30.90
71361;BME280;59166;48.908;1.870;2023-09-08T12:48:58;100306.66;;;35.83;31.09
71361;BME280;59166;48.908;1.870;2023-09-08T12:53:59;100309.34;;;35.90;30.68
71361;BME280;59166;48.908;1.870;2023-09-08T12:59:00;100299.09;;;35.80;29.77
71361;BME280;59166;48.908;1.870;2023-09-08T13:04:02;100298.03;;;35.01;30.64
71361;BME280;59166;48.908;1.870;2023-09-08T13:09:03;100290.31;;;34.28;32.00
71361;BME280;59166;48.908;1.870;2023-09-08T13:14:04;100277.28;;;34.41;33.20
71361;BME280;59166;48.908;1.870;2023-09-08T13:19:06;100268.16;;;35.14;31.66
71361;BME280;59166;48.908;1.870;2023-09-08T13:24:08;100264.44;;;35.44;31.05
71361;BME280;59166;48.908;1.870;2023-09-08T13:29:09;100260.69;;;35.70;30.00
71361;BME280;59166;48.908;1.870;2023-09-08T13:34:11;100254.03;;;35.84;29.83
71361;BME280;59166;48.908;1.870;2023-09-08T13:39:12;100249.78;;;35.76;31.02
71361;BME280;59166;48.908;1.870;2023-09-08T13:44:13;100237.75;;;35.95;29.50
71361;BME280;59166;48.908;1.870;2023-09-08T13:49:16;100241.38;;;36.12;29.15
71361;BME280;59166;48.908;1.870;2023-09-08T13:54:17;100239.66;;;36.18;29.77
71361;BME280;59166;48.908;1.870;2023-09-08T13:59:17;100232.13;;;35.95;27.97
71361;BME280;59166;48.908;1.870;2023-09-08T14:04:20;100238.50;;;36.15;27.64
71361;BME280;59166;48.908;1.870;2023-09-08T14:09:21;100233.81;;;36.28;27.89
71361;BME280;59166;48.908;1.870;2023-09-08T14:14:22;100225.44;;;36.25;27.86
71361;BME280;59166;48.908;1.870;2023-09-08T14:19:24;100221.59;;;36.35;27.94
71361;BME280;59166;48.908;1.870;2023-09-08T14:24:25;100221.44;;;36.42;28.77
71361;BME280;59166;48.908;1.870;2023-09-08T14:29:26;100226.72;;;36.56;28.81
71361;BME280;59166;48.908;1.870;2023-09-08T14:34:28;100230.19;;;36.80;27.33
71361;BME280;59166;48.908;1.870;2023-09-08T14:39:29;100216.81;;;36.68;28.10
71361;BME280;59166;48.908;1.870;2023-09-08T14:44:30;100216.81;;;35.96;27.85
71361;BME280;59166;48.908;1.870;2023-09-08T14:49:32;100218.97;;;35.69;30.05
71361;BME280;59166;48.908;1.870;2023-09-08T14:54:33;100208.66;;;36.02;28.76
71361;BME280;59166;48.908;1.870;2023-09-08T14:59:34;100206.19;;;36.23;28.37
71361;BME280;59166;48.908;1.870;2023-09-08T15:04:36;100198.56;;;36.40;27.94
71361;BME280;59166;48.908;1.870;2023-09-08T15:09:39;100194.50;;;36.57;28.13
71361;BME280;59166;48.908;1.870;2023-09-08T15:14:40;100193.63;;;36.60;26.97
71361;BME280;59166;48.908;1.870;2023-09-08T15:19:43;100197.50;;;36.50;27.27
71361;BME280;59166;48.908;1.870;2023-09-08T15:24:44;100185.72;;;36.55;27.24
71361;BME280;59166;48.908;1.870;2023-09-08T15:29:44;100185.59;;;36.26;27.11
71361;BME280;59166;48.908;1.870;2023-09-08T15:34:48;100182.00;;;36.26;28.80
71361;BME280;59166;48.908;1.870;2023-09-08T15:39:49;100184.97;;;36.19;28.17
71361;BME280;59166;48.908;1.870;2023-09-08T15:44:50;100185.00;;;35.99;28.79
71361;BME280;59166;48.908;1.870;2023-09-08T15:49:52;100180.19;;;36.16;28.58
71361;BME280;59166;48.908;1.870;2023-09-08T15:54:53;100176.09;;;36.20;29.18
71361;BME280;59166;48.908;1.870;2023-09-08T15:59:54;100160.31;;;36.07;28.16
71361;BME280;59166;48.908;1.870;2023-09-08T16:04:56;100165.16;;;36.06;28.03
71361;BME280;59166;48.908;1.870;2023-09-08T16:09:57;100163.50;;;36.09;27.98
71361;BME280;59166;48.908;1.870;2023-09-08T16:14:58;100172.34;;;35.91;29.06
71361;BME280;59166;48.908;1.870;2023-09-08T16:20:00;100174.00;;;35.88;28.98
71361;BME280;59166;48.908;1.870;2023-09-08T16:25:01;100169.59;;;35.68;28.83
71361;BME280;59166;48.908;1.870;2023-09-08T16:30:03;100169.31;;;35.42;29.33
71361;BME280;59166;48.908;1.870;2023-09-08T16:35:06;100173.59;;;35.31;29.45
71361;BME280;59166;48.908;1.870;2023-09-08T16:40:08;100163.91;;;35.32;29.58
71361;BME280;59166;48.908;1.870;2023-09-08T16:45:09;100159.53;;;35.08;29.14
71361;BME280;59166;48.908;1.870;2023-09-08T16:50:11;100165.44;;;34.93;29.89
71361;BME280;59166;48.908;1.870;2023-09-08T16:55:12;100161.19;;;34.59;29.96
71361;BME280;59166;48.908;1.870;2023-09-08T17:00:13;100161.19;;;34.35;31.02
71361;BME280;59166;48.908;1.870;2023-09-08T17:05:16;100164.00;;;34.05;31.43
71361;BME280;59166;48.908;1.870;2023-09-08T17:10:17;100167.19;;;33.77;32.66
71361;BME280;59166;48.908;1.870;2023-09-08T17:15:18;100161.81;;;33.56;33.52
71361;BME280;59166;48.908;1.870;2023-09-08T17:20:20;100172.06;;;33.35;33.79
71361;BME280;59166;48.908;1.870;2023-09-08T17:25:21;100158.66;;;33.16;34.12
71361;BME280;59166;48.908;1.870;2023-09-08T17:30:22;100160.41;;;33.03;35.61
71361;BME280;59166;48.908;1.870;2023-09-08T17:35:24;100165.47;;;32.74;36.99
71361;BME280;59166;48.908;1.870;2023-09-08T17:40:25;100157.38;;;32.39;36.60
71361;BME280;59166;48.908;1.870;2023-09-08T17:45:26;100165.94;;;32.07;37.63
71361;BME280;59166;48.908;1.870;2023-09-08T17:50:28;100162.03;;;31.90;38.29
71361;BME280;59166;48.908;1.870;2023-09-08T17:55:29;100161.34;;;31.72;39.01
71361;BME280;59166;48.908;1.870;2023-09-08T18:00:30;100167.47;;;31.35;39.70
71361;BME280;59166;48.908;1.870;2023-09-08T18:05:32;100165.50;;;31.18;40.80
71361;BME280;59166;48.908;1.870;2023-09-08T18:10:33;100168.72;;;31.02;39.82
71361;BME280;59166;48.908;1.870;2023-09-08T18:15:34;100173.50;;;30.91;39.25
71361;BME280;59166;48.908;1.870;2023-09-08T18:20:36;100173.50;;;30.70;39.91
71361;BME280;59166;48.908;1.870;2023-09-08T18:25:37;100188.25;;;30.64;40.25
71361;BME280;59166;48.908;1.870;2023-09-08T18:30:37;100181.50;;;30.54;40.02
71361;BME280;59166;48.908;1.870;2023-09-08T18:35:42;100185.03;;;30.40;40.23
71361;BME280;59166;48.908;1.870;2023-09-08T18:40:44;100181.44;;;30.40;40.56
71361;BME280;59166;48.908;1.870;2023-09-08T18:45:45;100186.59;;;30.31;41.24
71361;BME280;59166;48.908;1.870;2023-09-08T18:50:47;100190.97;;;30.21;42.08
71361;BME280;59166;48.908;1.870;2023-09-08T18:55:48;100201.66;;;30.05;43.91
71361;BME280;59166;48.908;1.870;2023-09-08T19:00:49;100218.69;;;29.17;46.68
71361;BME280;59166;48.908;1.870;2023-09-08T19:05:51;100222.75;;;28.76;48.34
71361;BME280;59166;48.908;1.870;2023-09-08T19:10:52;100226.16;;;28.62;48.98
71361;BME280;59166;48.908;1.870;2023-09-08T19:15:53;100224.63;;;28.65;47.67
71361;BME280;59166;48.908;1.870;2023-09-08T19:20:55;100229.63;;;28.48;47.78
71361;BME280;59166;48.908;1.870;2023-09-08T19:25:56;100238.22;;;28.36;48.11
71361;BME280;59166;48.908;1.870;2023-09-08T19:30:57;100240.50;;;28.24;47.94
71361;BME280;59166;48.908;1.870;2023-09-08T19:35:59;100235.56;;;28.10;48.01
71361;BME280;59166;48.908;1.870;2023-09-08T19:41:01;100241.34;;;27.98;47.46
71361;BME280;59166;48.908;1.870;2023-09-08T19:46:03;100251.00;;;27.78;48.80
71361;BME280;59166;48.908;1.870;2023-09-08T19:51:05;100251.34;;;27.73;49.05
71361;BME280;59166;48.908;1.870;2023-09-08T19:56:06;100246.66;;;27.50;49.95
71361;BME280;59166;48.908;1.870;2023-09-08T20:01:10;100254.78;;;27.36;49.92
71361;BME280;59166;48.908;1.870;2023-09-08T20:06:14;100261.69;;;27.23;51.90
71361;BME280;59166;48.908;1.870;2023-09-08T20:11:15;100255.63;;;27.14;50.57
71361;BME280;59166;48.908;1.870;2023-09-08T20:16:16;100252.38;;;27.09;49.94
71361;BME280;59166;48.908;1.870;2023-09-08T20:21:18;100256.19;;;27.00;50.49
71361;BME280;59166;48.908;1.870;2023-09-08T20:26:19;100256.88;;;26.94;50.62
71361;BME280;59166;48.908;1.870;2023-09-08T20:31:20;100257.13;;;26.85;51.09
71361;BME280;59166;48.908;1.870;2023-09-08T20:36:23;100261.06;;;26.84;50.10
71361;BME280;59166;48.908;1.870;2023-09-08T20:41:24;100258.59;;;26.79;49.72
71361;BME280;59166;48.908;1.870;2023-09-08T20:46:25;100265.53;;;26.70;50.95
71361;BME280;59166;48.908;1.870;2023-09-08T20:51:27;100267.41;;;26.62;51.71
71361;BME280;59166;48.908;1.870;2023-09-08T20:56:28;100260.19;;;26.58;51.43
71361;BME280;59166;48.908;1.870;2023-09-08T21:01:29;100263.19;;;26.49;51.72
71361;BME280;59166;48.908;1.870;2023-09-08T21:06:31;100257.16;;;26.43;52.11
71361;BME280;59166;48.908;1.870;2023-09-08T21:11:32;100257.31;;;26.31;52.94
71361;BME280;59166;48.908;1.870;2023-09-08T21:16:33;100253.53;;;26.20;52.60
71361;BME280;59166;48.908;1.870;2023-09-08T21:21:36;100250.34;;;26.18;54.49
71361;BME280;59166;48.908;1.870;2023-09-08T21:26:37;100240.34;;;26.14;52.75
71361;BME280;59166;48.908;1.870;2023-09-08T21:31:38;100247.63;;;26.02;54.71
71361;BME280;59166;48.908;1.870;2023-09-08T21:36:40;100248.00;;;26.01;54.02
71361;BME280;59166;48.908;1.870;2023-09-08T21:41:41;100242.72;;;25.96;53.80
71361;BME280;59166;48.908;1.870;2023-09-08T21:46:42;100242.44;;;25.82;55.00
71361;BME280;59166;48.908;1.870;2023-09-08T21:51:44;100243.91;;;25.76;54.66
71361;BME280;59166;48.908;1.870;2023-09-08T21:56:45;100235.59;;;25.76;54.63
71361;BME280;59166;48.908;1.870;2023-09-08T22:01:47;100236.25;;;25.69;53.49
71361;BME280;59166;48.908;1.870;2023-09-08T22:06:49;100244.94;;;25.68;54.19
71361;BME280;59166;48.908;1.870;2023-09-08T22:11:50;100242.59;;;25.70;54.77
71361;BME280;59166;48.908;1.870;2023-09-08T22:16:51;100238.50;;;25.64;55.26
71361;BME280;59166;48.908;1.870;2023-09-08T22:21:53;100237.63;;;25.60;55.17
71361;BME280;59166;48.908;1.870;2023-09-08T22:26:54;100243.00;;;25.52;54.81
71361;BME280;59166;48.908;1.870;2023-09-08T22:31:55;100240.22;;;25.52;54.99
71361;BME280;59166;48.908;1.870;2023-09-08T22:36:58;100239.53;;;25.40;54.91
71361;BME280;59166;48.908;1.870;2023-09-08T22:41:59;100238.56;;;25.32;54.92
71361;BME280;59166;48.908;1.870;2023-09-08T22:46:59;100237.84;;;25.35;55.97
71361;BME280;59166;48.908;1.870;2023-09-08T22:52:02;100236.53;;;25.29;55.87
71361;BME280;59166;48.908;1.870;2023-09-08T22:57:03;100229.69;;;25.23;55.43
71361;BME280;59166;48.908;1.870;2023-09-08T23:02:04;100226.44;;;25.21;56.32
71361;BME280;59166;48.908;1.870;2023-09-08T23:07:07;100229.84;;;25.15;56.12
71361;BME280;59166;48.908;1.870;2023-09-08T23:12:08;100221.38;;;25.08;56.72
71361;BME280;59166;48.908;1.870;2023-09-08T23:17:09;100222.09;;;25.05;56.78
71361;BME280;59166;48.908;1.870;2023-09-08T23:22:11;100222.75;;;24.98;56.53
71361;BME280;59166;48.908;1.870;2023-09-08T23:27:12;100219.38;;;24.89;57.14
71361;BME280;59166;48.908;1.870;2023-09-08T23:32:13;100222.13;;;24.89;57.49
71361;BME280;59166;48.908;1.870;2023-09-08T23:37:16;100223.13;;;24.81;57.27
71361;BME280;59166;48.908;1.870;2023-09-08T23:42:17;100224.53;;;24.75;58.58
71361;BME280;59166;48.908;1.870;2023-09-08T23:47:18;100227.63;;;24.58;60.23
71361;BME280;59166;48.908;1.870;2023-09-08T23:52:20;100221.09;;;24.34;61.09
71361;BME280;59166;48.908;1.870;2023-09-08T23:57:21;100229.91;;;24.24;61.98
